Airfield :







YOU CAN JOIN US ON...

 
LOGIN :

Register | Disclaimer

   EN    FR    IT 

 









Legend :    VFR   Marginal VFR   IFR   Intensive IFR   Very Intensive IFR
Visi :
Ceiling :
>= 8 km
>= 3000ft
5 to 8 km
1000 to 3000 ft
1500m to 5 km
500 to 1000 ft
800 to 1500m
200 to 500 ft
< 800m
< 200 ft
Symbols :   Thunderstorms  Fog  Heavy snow  Heavy precipitations  Wind > 20 kt







- Airport Elevation : 328 ft


KGFL - Floyd Bennett Memorial

CURRENT METAR :
  • 181053Z AUTO 36004KT 10SM CLR 21/18 A2997 RMK AO2 SLP147 T02110183

EXPIRED METARs :
  • 181002Z AUTO 36006KT 10SM SCT020 21/18 A2996 RMK AO2 T02060183
  • 180953Z AUTO 36005KT 10SM BKN020 21/18 A2996 RMK AO2 SLP142 T02060183
  • 180927Z AUTO 01007KT 10SM SCT020 21/18 A2994 RMK AO2 T02060183
  • 180853Z AUTO 36006KT 10SM OVC022 21/19 A2993 RMK AO2 SLP131 T02110189 55002

TAF KGFL
Valid from the 18 at 06:00 until the 19 at 06:00 UTC


180538Z 1806/1906 00000KT P6SM BKN005 OVC035
TEMPO 1806/1810 3SM BR SCT005 OVC035
FM181000 00000KT 6SM BR SCT002 OVC035
TEMPO 1810/1812 2SM BR OVC002
FM181200 06004KT P6SM FEW002 BKN025 BKN050
FM181300 06005KT P6SM SCT025 BKN050
FM181800 14006KT P6SM OVC050
KZBW FIR / North America



MET'MAP, your aeronautical weather chart ! - Copyright ORBIFLY December 2007 - Disclaimer

ORBIFLY MET'MAP TEAM :

Programming & Development : Alexandra Zaïnal
Concept & Development : Baudouin d'Aumeries
Co-Development & Prog : Marc-Olivier Méhu
Technical & hardware support : Manuel Goepfert

Contact : metmap@orbifly.com




SOURCES & CREDITS :

   NOAA